Anslagstavla - kartvy · info · telemetri · väder · rådata · status · furar · meddelanden · bulletiner · bläddra · rörliga · mitt konto

Denna sida visar APRS-bulletiner och meddelanden från de senaste 24 timmarna.

Välj en specifik bulletingrupp:
    all APRS FRA IGI LOCAL LUX MAREC MAREN SYDTD SYDWX WX XXXXX

Bulletiner och meddelanden från stationer inom 500 från din position
anrop ID meddelande ålder
AOMTN-5 BLN1XXXXX NO 9600? 21h5m
GDHILL-8 BLN1 1->9 ok. 6>5 weak. 14sees 11-13. 13 no digi 22h51m
GDHILL-8 BLN2 1->12 ok. 6>5 weak. 14sees 11-13. 13 no digi. 15 vox w 14. 22h40m
GDHILL-8 BLN3 Time for GP. 1 & 13 send msg to ALL. 21h55m
GDHILL-8 BLN4 #8 sees #1 Hello GP msg! 22h9m
GDHILL-8 BLN5 QRT at 1500. TNX! 21h9m
GDHILL-8 BLN6 QRT at 1500. No 9600 TNX! 21h6m
N2NUO-15 BLN0 WxBot 1.22 US weather forecast via APRS message. 3h30m
N2NUO-15 BLN1 Send a message to N2NUO-15 for a weather forecast at your location. 3h30m
N2NUO-15 BLN2 see https://sites.google.com/site/ki6wjp/wxbot 3h30m
N4AZR BLN0005 ROAN QRT 1505. 73 ALL! 21h1m
N4AZR BLN003 AT GP 2018 21h44m
Bulletiner (BLN0 - BLN9)
anrop ID meddelande ålder
456522 BLN2 TEMPERATURA MUITO BAIXA EM SAO JOAQUIM - 3ºC - Sun, 22 Jul 2018 01:00 AM BRT 10h57m
456893 BLN2 TEMPERATURA MUITO BAIXA EM CACAPAVA DO SUL - 3ºC - Sun, 22 Jul 2018 05:00 AM BRT 6h57m
9Z4RG-6 BLN0 APRS IGate 144.390MHz SGate 145.825MHz 7m5s
CX2SA-AB BLN1 ((((((( CX2SA - Salto Uruguay ))))))) http://www.cx2sa.org 4m30s
CX2SA-AB BLN2 CX2SA-EM APRS Email - Example> your@maildomain Hello World! 4m28s
CX2SA-AB BLN3 Send message to CX2SA-WI like: F callsign to WHO-IS info 4m26s
CX2SA-AB BLN4 ((( CX2SA-S1 ))) iAPRS Network http://www.iaprs.net 4m24s
CX2SA-AB BLN5 DOWNLOAD latest iAPRS servers list at http://cx2sa.org/SERVERS.TXT 4m22s
DB2HTA BLN0 DB2HTA, Herby looking for Olivia mode QSO, db2hta@darc.de 2m36s
EA5GFY-1 BLN1 Echolink EA5GFY-L UHF 145.235 Tono 94.8 CARTAGENA [Cobertura 25 Km] 3h52m
HP2BWJ-10 BLN1 Estacion de Packet via Telnet/Radio hp2bwj.from-pa.com:6300 19m48s
HP2BWJ-10 BLN2 HP2BWJ-WX reporte de estado del tiempo en Colon Panama via APRS 16m51s
K7YVO-15 BLN0 K7YVO-10 Winlink RMS E-Mail Gateway 145.610 39m42s
KL2NV-7 BLN0 test 7h35m
LW1DSE BLN1 Radiostation partially powered from Sun energy (18 Cell's 10Wpk). 1m54s
PY5BK-10 BLN0 Ricardo Aurelio Seco - py5bk@qsl.net - (43) 9.9919-0404 32m36s
PY5BK-10 BLN1 Equipamentos e Projetos de APRS - http://www.py5bk.net/aprs 32m26s
SBAF BLN0 Campo Delio Jardim de Mattos Airport METAR SBAF 221500Z 22008KT 9999 SCT020 25/20 Q1023 31m29s
SBAN BLN0 Base Aerea Airport METAR SBAN 221500Z 06012KT 9999 FEW040 25/06 Q1023 31m18s
SBAR BLN0 Santa Maria Airport METAR SBAR 221500Z 14013KT 9999 SCT020 28/19 Q1018 31m8s
SBBE BLN0 Val de Cans Julio Cezar Ribeiro International Airport METAR SBBE 221500Z 12007KT 9999 SCT013 31/21 Q1013 30m43s
SBBH BLN0 Pampulha - Carlos Drummond de Andrade Airport METAR SBBH 221500Z 10013KT 9999 SCT030 22/11 Q1024 30m33s
SBBI BLN0 Bacacheri Airport METAR SBBI 221400Z 06006KT 9999 OVC009 13/11 Q1026 1h30m
SBBQ BLN0 Major Brigadeiro Doorgal Borges Airport METAR SBBQ 221500Z 10005KT 9999 BKN020 20/13 Q1028 30m21s
SBBR BLN0 Presidente Juscelino Kubistschek International Airport METAR SBBR 221500Z 07013KT CAVOK 25/06 Q1022 30m10s
SBBU BLN0 Bauru Airport METAR SBBU 221500Z 02009KT CAVOK 25/16 Q1022 29m59s
SBBV BLN0 Atlas Brasil Cantanhede Airport METAR SBBV 221500Z 01003KT 9999 SCT020 SCT080 29/24 Q1014 29m49s
SBCA BLN0 Cascavel Airport METAR SBCA 211800Z 15014KT CAVOK 15/06 Q1022 21h29m
SBCB BLN0 Cabo Frio Airport METAR SBCB 221500Z 23008KT 9999 FEW020 26/20 Q1022 29m39s
SBCC BLN0 Cachimbo Airport METAR SBCC 221500Z 06010KT CAVOK 31/08 Q1017 29m28s
SBCF BLN0 Tancredo Neves International Airport METAR SBCF 221500Z 10014KT 9999 SCT025 22/12 Q1024 29m18s
SBCG BLN0 Campo Grande Airport METAR SBCG 221500Z 05012KT CAVOK 26/12 Q1019 29m8s
SBCH BLN0 Chapeco Airport METAR SBCH 221500Z 03008KT CAVOK 20/10 Q1020 28m58s
SBCJ BLN0 Carajas Airport METAR SBCJ 221500Z 13002KT CAVOK 30/14 Q1017 28m48s
SBCO BLN0 Canoas Airport METAR SBCO 220300Z 14001KT CAVOK 05/04 Q1023 12h29m
SBCP BLN0 Bartolomeu Lisandro Airport METAR SBCP 221500Z 21008KT 9999 SCT020 27/19 Q1022 28m38s
SBCR BLN0 Corumba International Airport METAR SBCR 221500Z 06009KT CAVOK 23/13 Q1016 28m27s
SBCT BLN0 Afonso Pena Airport METAR SBCT 221500Z 08008KT 9999 OVC009 13/10 Q1026 28m17s
SBCX BLN0 Campo dos Bugres Airport METAR SBCX 221400Z 33012KT CAVOK 12/08 Q1021 1h28m
SBCY BLN0 Marechal Rondon Airport METAR SBCY 221500Z 18003KT CAVOK 21/12 Q1018 28m6s
SBCZ BLN0 Cruzeiro do Sul Airport METAR SBCZ 221500Z 18005KT 9999 FEW015 BKN100 22/19 Q1018 27m55s
SBDN BLN0 Presidente Prudente Airport METAR SBDN 221400Z 10014KT CAVOK 23/12 Q1021 1h27m
SBEG BLN0 Eduardo Gomes International Airport METAR SBEG 221500Z 09006KT 9999 FEW020 32/21 Q1013 27m38s
SBES BLN0 Sao Pedro da Aldeia Airport METAR SBES 221500Z 22009KT 9999 SCT020 25/21 Q1022 27m27s
SBFI BLN0 Cataratas International Airport METAR SBFI 221500Z 05006KT CAVOK 20/10 Q1018 27m11s
SBFL BLN0 Hercilio Luz International Airport METAR SBFL 221500Z 34008KT 9999 BKN050 18/12 Q1024 27m
SBFN BLN0 Fernando de Noronha Airport METAR SBFN 221500Z 13009KT 9999 FEW011 BKN017 27/24 Q1014 26m50s
SBFZ BLN0 Pinto Martins International Airport METAR SBFZ 221500Z 08012KT 9999 SCT025 BKN100 30/22 Q1013 26m43s
SBGL BLN0 Galeao - Antonio Carlos Jobim International Airport METAR SBGL 221500Z 10006KT 9999 BKN025 26/19 Q1023 26m32s
SBGM BLN0 Guajara-Mirim Airport METAR SBGM 221500Z 14004KT CAVOK 25/16 Q1016 26m22s
SBGO BLN0 Santa Genoveva Airport METAR SBGO 221500Z 06010KT CAVOK 28/08 Q1021 26m12s
SBGR BLN0 Guarulhos - Governador Andre Franco Montoro International Airport METAR SBGR 221500Z 07009KT 9999 BKN023 20/15 Q1025 26m1s
SBGW BLN0 Guaratingueta Airport METAR SBGW 221500Z 05005KT 320V110 6000 SCT025 24/15 Q1024 25m50s
SBHT BLN0 Altamira Airport METAR SBHT 221500Z 06003KT 9999 BKN020 31/23 Q1013 25m44s
SBIH BLN0 Itaituba Airport METAR SBIH 221500Z /////KT CAVOK 33/22 Q1013 25m33s
SBIL BLN0 Bahia - Jorge Amado Airport METAR SBIL 220900Z 27005KT CAVOK 18/18 Q1019 6h26m
SBIP BLN0 Usiminas Airport METAR SBIP 221500Z 34003KT 9999 SCT020 27/18 Q1023 25m22s
SBIZ BLN0 Prefeito Renato Moreira Airport METAR SBIZ 221500Z 18010KT 9999 FEW020 34/19 Q1013 25m12s
SBJP BLN0 Presidente Castro Pinto Airport METAR SBJP 221500Z 13015KT 9999 BKN030 28/20 Q1016 25m2s
SBJR BLN0 Jacarepagua - Roberto Marinho Airport METAR SBJR 221500Z 19005KT 9999 SCT017 25/21 Q1023 24m52s
SBJU BLN0 Orlando Bezerra de Menezes Airport METAR SBJU 212300Z 18005KT CAVOK 27/13 Q1017 16h25m
SBJV BLN0 Lauro Carneiro de Loyola Airport METAR SBJV 221100Z 31003KT 9999 FEW005 BKN020 14/14 Q1025 4h25m
SBKG BLN0 Presidente Joao Suassuna Airport METAR SBKG 221500Z 14014KT 100V170 9999 BKN047 27/27 Q1017 24m43s
SBKP BLN0 Viracopos International Airport METAR SBKP 221500Z 10008KT CAVOK 24/13 Q1023 24m32s
SBLE BLN0 Chapada Diamantina Airport METAR SBLE 221500Z 03005KT 9999 BKN030 25/14 Q1021 24m21s
SBLO BLN0 Governador Jose Richa Airport METAR SBLO 221500Z 13005KT CAVOK 21/14 Q1023 24m11s
SBLS BLN0 Lagoa Santa Airport METAR SBLS 221500Z 12015KT 9999 SCT030 22/12 Q1024 24m
SBMA BLN0 Maraba Airport METAR SBMA 221500Z 08003KT 9999 FEW020 38/18 Q1013 23m50s
SBME BLN0 Macae Airport METAR SBME 220900Z 32003KT CAVOK 18/17 Q1020 6h24m
SBMG BLN0 Regional de Maringa - Silvio Nane Junior Airport METAR SBMG 221500Z 06006KT CAVOK 24/14 Q1020 23m43s
SBMK BLN0 Mario Ribeiro Airport METAR SBMK 220800Z 00000KT CAVOK 14/10 Q1020 7h22m
SBMN BLN0 Ponta Pelada Airport METAR SBMN 221500Z 12003KT 9999 FEW015 31/23 Q1013 23m33s
SBMO BLN0 Zumbi dos Palmares Airport METAR SBMO 221500Z 12011KT 9999 SCT020 SCT070 26/19 Q1018 23m23s
SBMQ BLN0 Alberto Alcolumbre Airport METAR SBMQ 221500Z 05008KT 9999 BKN023 32/24 Q1013 23m12s
SBMS BLN0 Dix-Sept Rosado Airport METAR SBMS 221200Z 18010KT CAVOK 30/18 Q1014 3h22m
SBMT BLN0 Campo de Marte Airport METAR SBMT 221300Z 09009KT 9999 FEW015 BKN017 18/12 Q1026 2h22m
SBNF BLN0 Ministro Victor Konder International Airport METAR SBNF 221500Z 10003KT 9999 BKN045 18/12 Q1025 23m2s
SBNT BLN0 Augusto Severo Airport METAR SBNT 221500Z 16018KT 9999 SCT023 SCT070 29/19 Q1014 22m52s
SBOI BLN0 Oiapoque Airport METAR SBOI 221500Z 22006KT 5000 -RA BKN015 BKN090 27/23 Q1014 22m43s
SBPA BLN0 Salgado Filho Airport METAR SBPA 221500Z VRB01KT CAVOK 17/10 Q1021 22m31s
SBPB BLN0 Prefeito Doutor Joao Silva Filho Airport METAR SBPB 221500Z 07011KT 9999 BKN017 BKN100 31/24 Q1012 22m21s
SBPC BLN0 Pocos de Caldas Airport METAR SBPC 221500Z 10008KT 9999 FEW012 24/14 Q1026 22m11s
SBPJ BLN0 Brigadeiro Lysias Rodrigues Airport METAR SBPJ 221500Z 13011KT CAVOK 33/08 Q1016 22m1s
SBPK BLN0 Pelotas Airport METAR SBPK 221500Z 09010KT CAVOK 12/08 Q1022 21m51s
SBPL BLN0 Senador Nilo Coelho Airport METAR SBPL 221500Z 15010KT 9999 FEW025 29/13 Q1018 21m44s
SBPP BLN0 Ponta Pora Airport METAR SBPP 221500Z 02014KT CAVOK 22/10 Q1018 21m34s
SBPR BLN0 Carlos Prates Airport METAR SBPR 221400Z 09013KT 9999 SCT025 22/13 Q1025 1h20m
SBPS BLN0 Porto Seguro Airport METAR SBPS 221500Z 12005KT 9999 SCT020 SCT100 26/18 Q1021 21m23s
SBPV BLN0 Governador Jorge Teixeira de Oliveira Airport METAR SBPV 221500Z 16007KT 9999 FEW030 27/15 Q1015 21m13s
SBQV BLN0 Vitoria da Conquista Airport METAR SBQV 211800Z 15012KT 9999 -RA BKN025 22/16 Q1021 21h19m
SBRB BLN0 Placido de Castro Airport METAR SBRB 221500Z 11007KT CAVOK 22/11 Q1017 21m3s
SBRF BLN0 Guararapes - Gilberto Freyre International Airport METAR SBRF 221500Z 15016KT 9999 SCT025 28/21 Q1016 20m51s
SBRJ BLN0 Santos Dumont Airport METAR SBRJ 221500Z 17008KT 7000 BKN015 27/22 Q1022 20m43s
SBRP BLN0 Leite Lopes Airport METAR SBRP 221500Z 09012KT CAVOK 29/11 Q1020 20m33s
SBSC BLN0 Santa Cruz Airport METAR SBSC 221500Z 18010KT 9999 SCT015 BKN070 25/20 Q1023 20m22s
SBSJ BLN0 Professor Urbano Ernesto Stumpf Airport METAR SBSJ 221500Z 13007KT 9999 SCT020 BKN100 21/15 Q1025 20m12s
SBSL BLN0 Marechal Cunha Machado International Airport METAR SBSL 221500Z 08006KT 9999 BKN017 FEW020TCU 29/24 Q1013 20m2s
SBSM BLN0 Santa Maria Airport METAR SBSM 221500Z 11006KT 080V150 9999 FEW020 BKN100 10/07 Q1020 19m52s
SBSN BLN0 Maestro Wilson Fonseca Airport METAR SBSN 221500Z 08010KT 9999 FEW020 SCT100 31/25 Q1013 19m44s
SBSP BLN0 Congonhas Airport METAR SBSP 221500Z 11007KT 040V150 9999 SCT016 BKN023 BKN027 19/13 Q1 026 19m33s
SBSR BLN0 Sao Jose do Rio Preto Airport METAR SBSR 221500Z 08005KT CAVOK 27/10 Q1021 19m22s
SBST BLN0 Base Aerea de Santos Airport METAR SBST 221400Z VRB02KT 2000 -DZ BR SCT025 OVC034 18/17 Q1025 1h18m
SBSV BLN0 Deputado Luiz Eduardo Magalhaes International Airport METAR SBSV 221500Z 13012KT 100V160 9999 SCT022 SCT070 28/17 Q1020 19m11s
SBTC BLN0 Hotel Transamerica Airport METAR SBTC 221400Z 17006KT 9999 FEW020 27/21 Q1022 1h18m
SBTE BLN0 Senador Petronio Portela Airport METAR SBTE 221500Z 12006KT 9999 FEW030 33/15 Q1013 19m1s
SBTF BLN0 Tefe Airport METAR SBTF 221500Z 19005KT 9999 FEW020 30/23 Q1013 18m51s
SBTT BLN0 Tabatinga Airport METAR SBTT 221500Z 17004KT 9999 BKN011 OVC070 24/22 Q1016 18m43s
SBUA BLN0 Sao Gabriel da Cachoeira Airport METAR SBUA 221500Z 01002KT 9999 SCT015 28/24 Q1014 18m31s
SBUF BLN0 Paulo Afonso Airport METAR SBUF 221200Z 11012KT 9999 BKN018 25/17 Q1019 3h15m
SBUG BLN0 Rubem Berta Airport METAR SBUG 221500Z 05008KT CAVOK 10/07 Q1018 18m21s
SBUL BLN0 Ten. Cel. Aviador Cesar Bombonato Airport METAR SBUL 220300Z 13006KT CAVOK 20/07 Q1021 12h19m
SBUR BLN0 Mario de Almeida Franco Airport METAR SBUR 221000Z 09006KT CAVOK 19/09 Q1021 5h18m
SBVH BLN0 Vilhena Airport METAR SBVH 221400Z 10007KT 050V140 CAVOK 24/14 Q1019 1h17m
SBVT BLN0 Eurico de Aguiar Salles Airport METAR SBVT 221500Z 16010KT 9999 FEW030 26/20 Q1022 18m11s
SBYS BLN0 Campo Fontenelle Airport METAR SBYS 221500Z 10009KT 060V130 CAVOK 25/13 Q1023 18m1s
WA1GOV-10 BLN0 APRS to Twitter Gateway-Send an APRS message to WA1GOV-10 4h28m
WA1GOV-10 BLN1 Your call and message will appear as a tweet from @wa1gov 4h28m
WA1GOV-10 BLN2 Include your Twitter ID or IDs to receive notifications 4h28m
WA1GOV-10 BLN3 Get the next SATELLITE pass prediction for your QTH! 4h28m
WA1GOV-10 BLN4 Send an APRS message to WA1GOV-10 with a single 4h28m
WA1GOV-10 BLN5 uppercase entry of ISS, AO-85, AO-91, AO-92 or SO-50 4h28m
WXBOT BLN0 WxBot 1.25 US weather forecast via APRS message. 2h14m
WXBOT BLN1 Send a message to WXBOT for a weather forecast at your location. 2h14m
WXBOT BLN2 see https://sites.google.com/site/ki6wjp/wxbot 2h14m
WXSVR-AU BLN0 WxSvr 1.00 AU weather forecast via APRS message. 1h48m
WXSVR-AU BLN1 Send a message to WXSVR-AU for a weather forecast at your location. 1h48m
WXSVR-AU BLN2 see http://wxsvr.aprs.net.au for more info 1h48m
WXYO BLN0 WxBot 1.22 RO weather forecast via APRS message. 3h44m
WXYO BLN1 Send a message to WXYO for a weather forecast at your location. 3h44m
WXYO BLN2 see https://sites.google.com/site/ki6wjp/wxbot 3h44m
Meddelanden (BLNA - BLNZ)
anrop ID meddelande ålder
EA5GFY-1 BLNA RADAR 24 Hours Weather via APRS On-Line Web http://qrz.com/call/EA5GFY 3h53m
LW1DSE BLNA Estación parcialmente alimentada con energía solar (18 celdas 10Wpk). 2m
VK5RHO-1 BLNB Join the Email Group aprs.net.au/mailman/listinfo/ozaprs 59m15s
VK5RSC-1 BLNA Info/Help on APRS in Sth Aust at http://vk5.aprs.net.au 2m36s
Andra grupper
anrop ID meddelande ålder
F8ARO-AB BLN1FRA CQ Serveur APRS 29m55s
F8ARO-AB BLN2FRA [To] CQSRVR-FR [Text] CQ message 29m50s
F8ARO-AB BLN3FRA Message APRS Email 29m45s
F8ARO-AB BLN4FRA [To] MAIL-FR [Text] email@domaine message 29m40s
F8ARO-AB BLN5FRA Annuaire QRZ.com 29m35s
F8ARO-AB BLN6FRA [To] QUI-FR [Text] f indicatif 29m30s
F8ARO-AB BLN7FRA FRANCE DMR TG 208 29m25s
IZ6RDB BLNEMAREN Adriatico Settentrionale: In atto isolati temporali con colpi di ve 32m13s
IZ6RDB BLNFMAREN Adriatico Settentrionale: nto. 31m58s
IZ6RDB BLNHMAREC Adriatico Centrale: In atto isolati temporali con colpi di vento. 31m45s
LX0APN-2 BLNALUX XLX270 Reflector https://xlx270.epf.lu/ 32m6s
LX0APR-2 BLNDIGI Pse use WIDEx-x & LUXx-x only , TNX 4h20m
LX0KA-10 BLNALUX ADRAD Club-Owend ass den 8te August Brasserie du Musée L-3714 Rümelingen 7m51s
LX1CU-13 BLNALUX XLX Reflector goes DMR https://xlx270.epf.lu/ 28m4s
LX6K-10 BLNALUX XLX270 B >< BM TG 27090 , You can reach us . 73 10m25s
N4AZR-7 BLN003 AT GP 2018 21h44m
NEUTBA BLN1SYDWX Sydney Forcast 23rd 21C Sunny. 8h57m
NEUTBA BLN2SYDTD Tide 0.78M, Vis 30Km, Cloud 01 Okt, Air Qual 31, UV idx 59m43s
OK1COM-10 BLN4WX SIGWX: ISOL, SE HALF 16/19 OCNL TS 28m23s
PY5DCP-1 BLN REER ATENCAO ALGUMAS REGIONAIS ESTARAO EM SIMULADO NO PROX 22/7 8m18s
ROAN-3 BLN001 roan digi up i think 23h51m
ROAN-3 BLN002 qsl 1-10 21h46m
YM2KDU BLN APRS Sabitte YM2KDU,WIDE2-2 Mobilde WIDE1-1,WIDE2-2 1h8m
YM2KY BLN1LOCAL info@sakrad.org 20m22s
Om denna site
Denna sida visar realtidsinformation från det Automatiska PositionsRapporteringsSystemet för Internet (APRS-IS). APRS används av radioamatörer för sändning av positionsinformation, väderdata, telemetri och meddelanden via radio. Ett fordon som är utrustat med en GPS-mottagare, en VHF-sändare eller HF transceiver och en liten dataenhet som kallas tracker, sänder sin position, fart och kurs i form av ett litet datapaket som sedan tas emot av en närliggande mottagningsplats (iGate) som skickar paketet vidare till Internet. System som är anslutna till Internet kan sända data via APRS-IS utan radiosändare, eller samla och presentera information som sänds var som helst i världen.
FAQ · Blogg · Diskussionsgrupp · Att länka till aprs.fi · AIS-positioner · Tjänstens status · Databasstatistik · Gör reklam på aprs.fi · Tekniska detaljer · API · Ändra logg · Planerade ändringar · Ära och tack · Användarvillkor · iPhone/iPad APRS